createdAt,value
2022-10-03T00:02:08.383Z,10.90
2022-10-03T00:05:19.471Z,10.80
2022-10-03T00:08:12.028Z,10.90
2022-10-03T00:11:03.029Z,10.80
2022-10-03T00:13:46.399Z,10.70
2022-10-03T00:16:23.553Z,10.60
2022-10-03T00:19:11.791Z,10.60
2022-10-03T00:22:04.499Z,10.40
2022-10-03T00:24:55.421Z,10.40
2022-10-03T00:27:36.328Z,10.40
2022-10-03T00:30:19.736Z,10.50
2022-10-03T00:33:14.927Z,10.50
2022-10-03T00:36:05.751Z,10.60
2022-10-03T00:39:25.457Z,10.60
2022-10-03T00:42:44.348Z,10.70
2022-10-03T00:45:43.367Z,10.90
2022-10-03T00:48:52.285Z,11.00
2022-10-03T00:51:53.170Z,10.90
2022-10-03T00:54:53.406Z,10.90
2022-10-03T00:57:50.758Z,10.70
2022-10-03T01:00:25.171Z,10.70
2022-10-03T01:03:28.498Z,10.60
2022-10-03T01:06:17.074Z,10.60
2022-10-03T01:09:37.480Z,10.60
2022-10-03T01:12:40.071Z,10.70
2022-10-03T01:15:24.471Z,10.70
2022-10-03T01:18:18.813Z,10.60
2022-10-03T01:21:03.735Z,10.70
2022-10-03T01:24:32.631Z,10.70
2022-10-03T01:27:07.326Z,10.70
2022-10-03T01:30:06.788Z,10.90
2022-10-03T01:32:47.204Z,11.00
2022-10-03T01:35:33.074Z,11.10
2022-10-03T01:38:17.225Z,11.10
2022-10-03T01:41:03.246Z,11.20
2022-10-03T01:43:44.674Z,11.30
2022-10-03T01:46:26.622Z,11.40
2022-10-03T01:49:11.296Z,11.30
2022-10-03T01:51:54.990Z,11.30
2022-10-03T01:54:36.669Z,11.30
2022-10-03T01:57:22.641Z,11.40
2022-10-03T02:00:05.295Z,11.40
2022-10-03T02:02:55.216Z,11.40
2022-10-03T02:05:44.647Z,11.40
2022-10-03T02:08:33.315Z,11.40
2022-10-03T02:11:08.351Z,11.30
2022-10-03T02:13:52.742Z,11.20
2022-10-03T02:16:39.368Z,11.00
2022-10-03T02:19:21.929Z,11.00
2022-10-03T02:21:55.903Z,11.00
2022-10-03T02:24:44.282Z,11.00
2022-10-03T02:27:55.161Z,11.10
2022-10-03T02:30:40.507Z,11.10
2022-10-03T02:33:59.575Z,11.10
2022-10-03T02:37:16.524Z,11.20
2022-10-03T02:40:23.031Z,11.40
2022-10-03T02:43:42.862Z,11.40
2022-10-03T02:47:15.051Z,11.40
2022-10-03T02:50:33.976Z,11.40
2022-10-03T02:53:55.199Z,11.30
2022-10-03T02:57:16.620Z,11.40
2022-10-03T03:00:12.201Z,11.30
2022-10-03T03:03:29.402Z,11.20
2022-10-03T03:06:47.477Z,10.90
2022-10-03T03:09:55.355Z,10.80
2022-10-03T03:12:58.854Z,10.70
2022-10-03T03:16:16.948Z,10.80
2022-10-03T03:19:00.379Z,10.80
2022-10-03T03:21:41.309Z,10.80
2022-10-03T03:24:44.589Z,10.80
2022-10-03T03:27:43.416Z,10.80
2022-10-03T03:30:18.562Z,10.70
2022-10-03T03:33:09.315Z,10.70
2022-10-03T03:36:00.359Z,10.80
2022-10-03T03:38:44.479Z,10.80
2022-10-03T03:41:51.291Z,10.80
2022-10-03T03:45:00.921Z,10.60
2022-10-03T03:48:05.001Z,10.40
2022-10-03T03:50:57.824Z,10.20
2022-10-03T03:53:59.757Z,10.10
2022-10-03T03:57:05.332Z,10.00
2022-10-03T04:00:00.164Z,10.10
2022-10-03T04:03:00.309Z,10.30
2022-10-03T04:05:55.736Z,10.30
2022-10-03T04:08:49.939Z,10.40
2022-10-03T04:11:32.153Z,10.50
2022-10-03T04:14:52.223Z,10.60
2022-10-03T04:18:05.152Z,10.60
2022-10-03T04:21:18.172Z,10.60
2022-10-03T04:24:11.404Z,10.80
2022-10-03T04:27:01.464Z,10.80
2022-10-03T04:29:56.946Z,10.90
2022-10-03T04:32:49.103Z,10.90
2022-10-03T04:35:48.482Z,11.00
2022-10-03T04:38:43.167Z,11.00
2022-10-03T04:41:29.280Z,11.00
2022-10-03T04:44:14.789Z,11.10
2022-10-03T04:46:58.914Z,11.20
2022-10-03T04:49:41.773Z,11.20
2022-10-03T04:52:25.303Z,11.20
2022-10-03T04:55:10.185Z,11.10
2022-10-03T04:57:51.488Z,11.20
2022-10-03T05:00:28.438Z,11.10
2022-10-03T05:03:10.269Z,11.10
2022-10-03T05:05:58.230Z,11.20
2022-10-03T05:08:51.655Z,11.10
2022-10-03T05:11:47.551Z,11.00
2022-10-03T05:14:31.227Z,11.00
2022-10-03T05:17:13.292Z,11.00
2022-10-03T05:20:07.359Z,11.00
2022-10-03T05:22:53.210Z,11.00
2022-10-03T05:25:46.405Z,11.00
2022-10-03T05:28:35.945Z,10.90
2022-10-03T05:31:26.122Z,10.90
2022-10-03T05:34:11.344Z,10.90
2022-10-03T05:37:12.141Z,10.90
2022-10-03T05:39:56.344Z,10.90
2022-10-03T05:43:12.196Z,10.80
2022-10-03T05:45:55.887Z,10.70
2022-10-03T05:48:45.469Z,10.70
2022-10-03T05:51:54.726Z,10.70
2022-10-03T05:55:04.437Z,10.70
2022-10-03T05:58:20.199Z,10.70
2022-10-03T06:01:36.574Z,10.70
2022-10-03T06:04:53.574Z,10.80
2022-10-03T06:07:34.141Z,10.90
2022-10-03T06:10:51.071Z,11.10
2022-10-03T06:13:40.921Z,11.10
2022-10-03T06:16:35.188Z,11.10
2022-10-03T06:19:28.915Z,11.10
2022-10-03T06:23:05.718Z,11.00
2022-10-03T06:26:30.059Z,11.10
2022-10-03T06:29:46.390Z,11.20
2022-10-03T06:33:09.085Z,11.10
2022-10-03T06:36:20.010Z,11.10
2022-10-03T06:39:36.032Z,11.10
2022-10-03T06:42:51.859Z,11.30
2022-10-03T06:46:16.769Z,11.40
2022-10-03T06:49:24.588Z,11.50
2022-10-03T06:52:38.223Z,11.80
2022-10-03T06:56:08.217Z,12.00
2022-10-03T06:59:16.858Z,11.90
2022-10-03T07:02:25.276Z,11.70
2022-10-03T07:05:54.028Z,11.70
2022-10-03T07:09:28.932Z,12.10
2022-10-03T07:12:47.618Z,12.30
2022-10-03T07:20:01.279Z,12.40
2022-10-03T07:23:26.909Z,12.50
2022-10-03T07:26:46.658Z,12.40
2022-10-03T07:29:30.848Z,12.60
2022-10-03T07:32:40.042Z,12.70
2022-10-03T07:36:03.135Z,12.80
2022-10-03T07:39:12.409Z,13.10
2022-10-03T07:42:03.498Z,13.30
2022-10-03T07:45:34.486Z,13.40
2022-10-03T07:48:55.020Z,13.00
2022-10-03T07:51:45.577Z,13.10
2022-10-03T07:54:49.953Z,13.20
2022-10-03T07:58:05.294Z,13.40
2022-10-03T08:00:57.371Z,13.40
2022-10-03T08:04:16.594Z,13.40
2022-10-03T08:06:57.559Z,13.30
2022-10-03T08:10:04.660Z,13.50
2022-10-03T08:13:07.258Z,13.80
2022-10-03T08:16:12.166Z,14.00
2022-10-03T08:19:13.022Z,14.00
2022-10-03T08:22:02.282Z,14.20
2022-10-03T08:25:09.188Z,14.30
2022-10-03T08:28:02.743Z,14.60
2022-10-03T08:30:56.426Z,14.50
2022-10-03T08:34:01.861Z,14.60
2022-10-03T08:37:22.819Z,14.70
2022-10-03T08:40:38.101Z,14.80
2022-10-03T08:43:55.080Z,15.30
2022-10-03T08:47:05.109Z,15.90
2022-10-03T08:50:30.748Z,16.40
2022-10-03T08:53:54.066Z,16.70
2022-10-03T08:56:38.576Z,16.80
2022-10-03T09:00:05.666Z,16.80
2022-10-03T09:03:36.869Z,17.00
2022-10-03T09:10:38.009Z,17.50
2022-10-03T09:13:41.020Z,17.60
2022-10-03T09:16:41.393Z,17.70
2022-10-03T09:20:10.972Z,18.70
2022-10-03T09:23:39.889Z,19.80
2022-10-03T09:26:51.903Z,19.10
2022-10-03T09:29:58.267Z,18.90
2022-10-03T09:33:27.514Z,18.80
2022-10-03T09:36:34.068Z,18.30
2022-10-03T09:39:52.005Z,17.90
2022-10-03T09:43:14.988Z,17.40
2022-10-03T09:46:26.887Z,16.80
2022-10-03T09:49:51.033Z,16.20
2022-10-03T09:52:56.945Z,15.80
2022-10-03T09:55:52.639Z,15.90
2022-10-03T09:59:14.065Z,16.30
2022-10-03T10:01:54.781Z,17.40
2022-10-03T10:04:58.779Z,18.20
2022-10-03T10:08:21.655Z,18.50
2022-10-03T10:11:24.846Z,19.50
2022-10-03T10:14:29.193Z,22.50
2022-10-03T10:17:54.913Z,24.20
2022-10-03T10:21:13.004Z,25.60
2022-10-03T10:24:03.669Z,28.50
2022-10-03T10:27:23.227Z,29.10
2022-10-03T10:30:24.162Z,29.10
2022-10-03T10:33:58.938Z,29.80
2022-10-03T10:37:25.844Z,29.00
2022-10-03T10:40:52.536Z,25.00
2022-10-03T10:44:11.449Z,23.50
2022-10-03T10:47:48.997Z,21.50
2022-10-03T10:51:01.582Z,23.20
2022-10-03T10:54:19.412Z,24.50
2022-10-03T10:57:19.463Z,25.60
2022-10-03T11:00:24.119Z,26.50
2022-10-03T11:03:57.056Z,26.30
2022-10-03T11:07:07.112Z,26.40
2022-10-03T11:10:26.089Z,29.20
2022-10-03T11:14:00.998Z,29.30
2022-10-03T11:17:37.738Z,29.50
2022-10-03T11:21:07.666Z,29.60
2022-10-03T11:24:25.929Z,28.80
2022-10-03T11:27:50.184Z,25.60
2022-10-03T11:30:46.301Z,28.80
2022-10-03T11:34:13.165Z,27.30
2022-10-03T11:37:26.045Z,25.10
2022-10-03T11:40:16.931Z,23.90
2022-10-03T11:43:03.675Z,22.00
2022-10-03T11:45:43.054Z,21.40
2022-10-03T11:48:40.068Z,20.80
2022-10-03T11:54:19.238Z,19.70
2022-10-03T11:56:53.870Z,19.80
2022-10-03T11:59:47.724Z,19.50
2022-10-03T12:02:40.740Z,19.40
2022-10-03T12:05:25.647Z,19.10
2022-10-03T12:08:36.754Z,19.10
2022-10-03T12:11:17.098Z,19.60
2022-10-03T12:14:10.951Z,21.10
2022-10-03T12:17:05.916Z,21.70
2022-10-03T12:19:50.036Z,21.30
2022-10-03T12:22:43.684Z,21.60
2022-10-03T12:25:25.921Z,20.90
2022-10-03T12:28:16.333Z,20.40
2022-10-03T12:30:56.904Z,20.60
2022-10-03T12:33:49.865Z,20.90
2022-10-03T12:36:28.351Z,21.60
2022-10-03T12:39:24.528Z,21.10
2022-10-03T12:42:26.864Z,20.30
2022-10-03T12:45:05.104Z,20.20
2022-10-03T12:47:57.499Z,19.40
2022-10-03T12:50:43.289Z,18.60
2022-10-03T12:53:41.826Z,18.00
2022-10-03T12:56:28.432Z,17.70
2022-10-03T12:59:22.810Z,17.40
2022-10-03T13:02:26.185Z,17.30
2022-10-03T13:05:27.845Z,17.30
2022-10-03T13:08:06.839Z,17.30
2022-10-03T13:10:45.751Z,17.40
2022-10-03T13:13:32.087Z,17.10
2022-10-03T13:16:32.814Z,16.90
2022-10-03T13:19:12.670Z,16.90
2022-10-03T13:22:08.356Z,17.00
2022-10-03T13:24:52.597Z,16.90
2022-10-03T13:27:39.666Z,17.00
2022-10-03T13:30:23.214Z,17.00
2022-10-03T13:33:04.332Z,16.90
2022-10-03T13:35:56.045Z,17.10
2022-10-03T13:39:08.128Z,16.80
2022-10-03T13:42:10.512Z,16.80
2022-10-03T13:44:44.769Z,16.60
2022-10-03T13:47:31.274Z,16.70
2022-10-03T13:50:10.966Z,16.90
2022-10-03T13:52:48.034Z,17.00
2022-10-03T13:55:34.238Z,16.80
2022-10-03T13:58:39.823Z,16.40
2022-10-03T14:01:41.842Z,16.10
2022-10-03T14:04:43.749Z,15.80
2022-10-03T14:07:26.913Z,15.80
2022-10-03T14:10:26.497Z,15.90
2022-10-03T14:13:22.895Z,16.10
2022-10-03T14:16:01.664Z,16.40
2022-10-03T14:18:50.807Z,16.70
2022-10-03T14:21:47.828Z,17.10
2022-10-03T14:24:43.039Z,17.40
2022-10-03T14:27:47.219Z,17.70
2022-10-03T14:30:22.329Z,17.90
2022-10-03T14:33:17.759Z,18.00
2022-10-03T14:36:03.940Z,17.60
2022-10-03T14:39:07.370Z,17.70
2022-10-03T14:41:52.271Z,17.30
2022-10-03T14:44:26.983Z,17.10
2022-10-03T14:47:05.080Z,17.20
2022-10-03T14:49:55.043Z,17.30
2022-10-03T14:52:37.094Z,17.50
2022-10-03T14:55:17.909Z,17.70
2022-10-03T14:58:10.431Z,17.90
2022-10-03T15:00:46.833Z,17.90
2022-10-03T15:03:33.950Z,18.40
2022-10-03T15:06:24.312Z,18.50
2022-10-03T15:08:58.326Z,18.60
2022-10-03T15:11:35.361Z,18.70
2022-10-03T15:14:12.878Z,18.90
2022-10-03T15:16:51.379Z,18.30
2022-10-03T15:19:28.400Z,18.10
2022-10-03T15:22:18.893Z,18.10
2022-10-03T15:24:50.551Z,18.10
2022-10-03T15:27:25.728Z,18.00
2022-10-03T15:30:02.297Z,18.00
2022-10-03T15:32:42.222Z,18.00
2022-10-03T15:35:22.917Z,18.00
2022-10-03T15:37:57.667Z,18.10
2022-10-03T15:40:39.198Z,18.10
2022-10-03T15:43:20.619Z,18.10
2022-10-03T15:45:54.931Z,18.00
2022-10-03T15:48:28.102Z,17.90
2022-10-03T15:51:00.204Z,17.80
2022-10-03T15:53:37.179Z,17.60
2022-10-03T15:56:19.058Z,17.60
2022-10-03T15:58:55.281Z,17.60
2022-10-03T16:01:34.300Z,17.20
2022-10-03T16:04:08.240Z,16.90
2022-10-03T16:06:50.019Z,16.80
2022-10-03T16:09:31.363Z,16.50
2022-10-03T16:12:58.616Z,16.30
2022-10-03T16:15:47.209Z,16.00
2022-10-03T16:18:48.471Z,15.80
2022-10-03T16:21:34.054Z,15.70
2022-10-03T16:24:08.653Z,15.40
2022-10-03T16:26:54.175Z,15.10
2022-10-03T16:29:31.304Z,14.90
2022-10-03T16:32:09.456Z,14.60
2022-10-03T16:34:49.169Z,14.40
2022-10-03T16:37:24.471Z,14.20
2022-10-03T16:40:02.892Z,14.10
2022-10-03T16:42:45.409Z,13.80
2022-10-03T16:45:29.062Z,13.60
2022-10-03T16:48:17.646Z,13.40
2022-10-03T16:50:56.126Z,13.20
2022-10-03T16:53:27.304Z,13.00
2022-10-03T16:56:03.119Z,12.70
2022-10-03T16:58:39.964Z,12.50
2022-10-03T17:01:27.423Z,12.40
2022-10-03T17:04:15.936Z,12.30
2022-10-03T17:06:53.636Z,12.10
2022-10-03T17:09:43.172Z,11.80
2022-10-03T17:12:22.659Z,11.70
2022-10-03T17:14:57.437Z,11.70
2022-10-03T17:17:37.133Z,11.60
2022-10-03T17:20:15.855Z,11.50
2022-10-03T17:22:59.896Z,11.20
2022-10-03T17:25:46.355Z,11.20
2022-10-03T17:28:30.140Z,11.20
2022-10-03T17:31:07.015Z,11.10
2022-10-03T17:33:46.839Z,10.90
2022-10-03T17:37:10.164Z,10.80
2022-10-03T17:39:58.850Z,10.70
2022-10-03T17:42:47.528Z,10.40
2022-10-03T17:45:37.022Z,10.20
2022-10-03T17:48:17.545Z,10.30
2022-10-03T17:51:03.212Z,10.30
2022-10-03T17:53:39.267Z,10.30
2022-10-03T17:56:17.379Z,10.10
2022-10-03T17:58:53.615Z,10.20
2022-10-03T18:01:31.972Z,10.20
2022-10-03T18:04:07.503Z,10.10
2022-10-03T18:06:52.104Z,10.20
2022-10-03T18:09:45.778Z,10.20
2022-10-03T18:12:31.052Z,10.00
2022-10-03T18:15:53.188Z,10.00
2022-10-03T18:19:02.501Z,9.90
2022-10-03T18:21:49.512Z,9.80
2022-10-03T18:24:43.151Z,9.80
2022-10-03T18:27:59.425Z,9.70
2022-10-03T18:30:46.190Z,9.50
2022-10-03T18:33:21.369Z,9.50
2022-10-03T18:35:52.857Z,9.50
2022-10-03T18:38:26.892Z,9.50
2022-10-03T18:41:00.414Z,9.30
2022-10-03T18:43:45.140Z,9.20
2022-10-03T18:46:21.758Z,9.10
2022-10-03T18:49:31.846Z,9.00
2022-10-03T18:52:07.406Z,9.10
2022-10-03T18:54:53.740Z,9.20
2022-10-03T18:57:32.983Z,9.30
2022-10-03T19:00:10.551Z,9.30
2022-10-03T19:02:50.547Z,9.10
2022-10-03T19:05:27.484Z,9.00
2022-10-03T19:08:14.144Z,8.90
2022-10-03T19:10:50.212Z,8.90
2022-10-03T19:13:32.193Z,9.00
2022-10-03T19:16:22.959Z,8.90
2022-10-03T19:19:08.890Z,9.00
2022-10-03T19:21:43.177Z,8.90
2022-10-03T19:24:34.475Z,8.80
2022-10-03T19:27:18.366Z,8.50
2022-10-03T19:29:53.646Z,8.60
2022-10-03T19:32:34.882Z,8.50
2022-10-03T19:35:08.620Z,8.40
2022-10-03T19:37:46.115Z,8.30
2022-10-03T19:40:40.216Z,8.20
2022-10-03T19:43:43.716Z,8.30
2022-10-03T19:46:56.593Z,8.30
2022-10-03T19:49:39.315Z,8.30
2022-10-03T19:52:23.863Z,8.20
2022-10-03T19:55:01.371Z,8.20
2022-10-03T19:57:43.699Z,8.20
2022-10-03T20:00:31.327Z,8.10
2022-10-03T20:03:15.365Z,8.00
2022-10-03T20:06:00.135Z,7.90
2022-10-03T20:08:41.839Z,7.90
2022-10-03T20:11:49.397Z,7.80
2022-10-03T20:14:26.833Z,7.80
2022-10-03T20:17:02.210Z,7.70
2022-10-03T20:19:38.910Z,7.70
2022-10-03T20:22:18.892Z,7.60
2022-10-03T20:24:49.257Z,7.50
2022-10-03T20:27:38.535Z,7.50
2022-10-03T20:30:35.857Z,7.30
2022-10-03T20:33:08.310Z,7.30
2022-10-03T20:35:54.323Z,7.30
2022-10-03T20:38:53.056Z,7.50
2022-10-03T20:41:38.722Z,7.50
2022-10-03T20:44:20.527Z,7.50
2022-10-03T20:46:54.928Z,7.50
2022-10-03T20:49:34.513Z,7.50
2022-10-03T20:52:09.598Z,7.50
2022-10-03T20:54:53.381Z,7.20
2022-10-03T20:57:29.856Z,7.20
2022-10-03T21:00:12.864Z,7.20
2022-10-03T21:02:51.665Z,7.20
2022-10-03T21:05:30.506Z,7.20
2022-10-03T21:08:05.360Z,7.00
2022-10-03T21:10:42.536Z,7.00
2022-10-03T21:13:23.478Z,7.10
2022-10-03T21:15:57.366Z,7.10
2022-10-03T21:18:31.643Z,7.00
2022-10-03T21:21:11.531Z,7.00
2022-10-03T21:23:51.152Z,7.10
2022-10-03T21:26:31.990Z,7.10
2022-10-03T21:29:19.884Z,7.00
2022-10-03T21:32:03.537Z,7.00
2022-10-03T21:34:43.795Z,6.90
2022-10-03T21:37:25.916Z,6.80
2022-10-03T21:40:18.159Z,6.90
2022-10-03T21:43:08.093Z,6.90
2022-10-03T21:45:53.334Z,7.00
2022-10-03T21:48:36.577Z,7.00
2022-10-03T21:51:27.827Z,7.00
2022-10-03T21:54:25.929Z,7.00
2022-10-03T21:57:11.872Z,7.00
2022-10-03T22:00:07.249Z,7.10
2022-10-03T22:02:51.144Z,7.10
2022-10-03T22:05:35.702Z,7.10
2022-10-03T22:08:18.047Z,7.20
2022-10-03T22:11:07.103Z,7.10
2022-10-03T22:13:42.616Z,7.00
2022-10-03T22:16:28.987Z,6.70
2022-10-03T22:19:22.547Z,6.70
2022-10-03T22:22:14.703Z,6.80
2022-10-03T22:25:05.784Z,6.80
2022-10-03T22:27:45.938Z,6.80
2022-10-03T22:30:20.577Z,6.90
2022-10-03T22:33:10.767Z,6.90
2022-10-03T22:35:52.967Z,6.80
2022-10-03T22:38:29.419Z,6.60
2022-10-03T22:41:07.416Z,6.70
2022-10-03T22:43:40.733Z,6.80
2022-10-03T22:46:15.789Z,6.90
2022-10-03T22:48:53.579Z,6.80
2022-10-03T22:51:25.050Z,6.70
2022-10-03T22:54:01.643Z,6.60
2022-10-03T22:56:48.056Z,6.50
2022-10-03T22:59:26.256Z,6.40
2022-10-03T23:02:01.537Z,6.50
2022-10-03T23:04:40.559Z,6.40
2022-10-03T23:07:33.134Z,6.20
2022-10-03T23:10:18.616Z,6.10
2022-10-03T23:13:00.769Z,6.00
2022-10-03T23:15:35.271Z,6.00
2022-10-03T23:18:35.962Z,6.00
2022-10-03T23:21:14.486Z,6.20
2022-10-03T23:24:08.705Z,6.20
2022-10-03T23:27:27.031Z,6.20
2022-10-03T23:30:57.097Z,6.10
2022-10-03T23:33:53.222Z,6.00
2022-10-03T23:36:27.428Z,6.00
2022-10-03T23:39:02.317Z,6.10
2022-10-03T23:41:47.771Z,6.10
2022-10-03T23:44:49.094Z,6.00
2022-10-03T23:47:26.155Z,6.00
2022-10-03T23:49:57.546Z,6.10
2022-10-03T23:52:36.324Z,6.10
2022-10-03T23:55:11.175Z,6.10
2022-10-03T23:57:45.831Z,6.00
